Time;durP1;ratioP1;P1;durP2;ratioP2;P2;SDS_P1;SDS_P2;PMS_P1;PMS_P2;Temp;Humidity;BMP_temperature;BMP_pressure;BME280_temperature;BME280_humidity;BME280_pressure;Samples;Min_cycle;Max_cycle;Signal;HPM_P1;HPM_P2
2023/12/27 00:00:16;;;;;;;3.03;2.10;;;;;;;;;;1019593;29;20039;-72
2023/12/27 00:00:47;;;;;;;6.70;2.60;;;;;;;;;;1021638;28;20029;-73
2023/12/27 00:01:17;;;;;;;10.63;4.72;;;;;;;;;;1021272;29;20089;-72
2023/12/27 00:01:48;;;;;;;2.60;2.40;;;;;;;;;;1022928;29;20023;-72
2023/12/27 00:02:18;;;;;;;4.80;2.20;;;;;;;;;;1021123;28;20453;-73
2023/12/27 00:02:49;;;;;;;2.67;2.50;;;;;;;;;;1021446;29;20091;-72
2023/12/27 00:03:19;;;;;;;3.65;2.83;;;;;;;;;;1021061;29;20536;-72
2023/12/27 00:03:50;;;;;;;5.97;1.73;;;;;;;;;;1021463;29;20027;-73
2023/12/27 00:04:20;;;;;;;5.30;3.30;;;;;;;;;;1021718;29;20027;-73
2023/12/27 00:04:51;;;;;;;9.10;2.05;;;;;;;;;;1021293;29;20028;-73
2023/12/27 00:05:21;;;;;;;12.98;3.85;;;;;;;;;;1020029;29;20046;-73
2023/12/27 00:05:52;;;;;;;7.15;4.32;;;;;;;;;;1021224;28;20019;-72
2023/12/27 00:06:22;;;;;;;4.30;2.10;;;;;;;;;;1021332;29;20036;-72
2023/12/27 00:06:54;;;;;;;1.75;1.25;;;;;;;;;;1021534;29;20413;-72
2023/12/27 00:07:24;;;;;;;4.13;2.47;;;;;;;;;;1021784;29;20452;-73
2023/12/27 00:07:55;;;;;;;5.53;2.05;;;;;;;;;;1021353;29;20034;-73
2023/12/27 00:08:25;;;;;;;1.25;1.20;;;;;;;;;;1021298;29;20493;-72
2023/12/27 00:08:56;;;;;;;6.40;2.63;;;;;;;;;;1021213;29;20011;-72
2023/12/27 00:09:26;;;;;;;3.38;1.98;;;;;;;;;;1021471;29;20027;-73
2023/12/27 00:09:57;;;;;;;2.75;1.95;;;;;;;;;;1020432;29;20034;-73
2023/12/27 00:10:27;;;;;;;3.13;2.88;;;;;;;;;;1021720;28;20162;-73
2023/12/27 00:10:58;;;;;;;4.15;2.20;;;;;;;;;;1021294;28;20024;-73
2023/12/27 00:11:29;;;;;;;5.25;2.42;;;;;;;;;;1021655;28;20437;-73
2023/12/27 00:11:59;;;;;;;1.40;1.35;;;;;;;;;;1022105;28;20121;-73
2023/12/27 00:12:30;;;;;;;8.38;3.70;;;;;;;;;;1021782;29;20543;-73
2023/12/27 00:13:00;;;;;;;3.00;2.47;;;;;;;;;;1021603;29;20027;-73
2023/12/27 00:13:31;;;;;;;3.28;3.05;;;;;;;;;;1021614;29;20034;-73
2023/12/27 00:14:01;;;;;;;1.50;1.40;;;;;;;;;;1021239;29;20361;-73
2023/12/27 00:14:32;;;;;;;2.13;1.95;;;;;;;;;;1021215;29;20030;-73
2023/12/27 00:15:03;;;;;;;3.03;2.28;;;;;;;;;;1021031;29;20023;-73
2023/12/27 00:15:33;;;;;;;2.05;1.85;;;;;;;;;;1021160;29;20031;-73
2023/12/27 00:16:04;;;;;;;2.60;2.40;;;;;;;;;;1021166;28;20144;-73
2023/12/27 00:16:35;;;;;;;2.78;2.25;;;;;;;;;;1021304;29;20060;-73
2023/12/27 00:17:05;;;;;;;6.63;3.75;;;;;;;;;;1021341;29;20027;-72
2023/12/27 00:17:35;;;;;;;8.02;4.35;;;;;;;;;;1021248;29;20019;-73
2023/12/27 00:18:06;;;;;;;7.78;3.25;;;;;;;;;;1021595;29;20051;-73
2023/12/27 00:18:37;;;;;;;8.52;3.30;;;;;;;;;;1021258;29;20032;-73
2023/12/27 00:19:07;;;;;;;8.52;4.95;;;;;;;;;;1021191;29;20487;-73
2023/12/27 00:19:38;;;;;;;7.13;3.15;;;;;;;;;;1021211;29;20047;-73
2023/12/27 00:20:09;;;;;;;12.98;4.90;;;;;;;;;;1021073;29;20292;-73
2023/12/27 00:20:39;;;;;;;5.95;2.10;;;;;;;;;;1021534;29;20132;-73
2023/12/27 00:21:10;;;;;;;4.78;2.38;;;;;;;;;;1021220;29;20558;-73
2023/12/27 00:21:41;;;;;;;6.65;3.13;;;;;;;;;;1021164;28;20042;-73
2023/12/27 00:22:14;;;;;;;2.38;2.17;;;;;;;;;;1021267;29;20062;-73
2023/12/27 00:22:44;;;;;;;2.75;1.85;;;;;;;;;;1017381;29;20037;-73
2023/12/27 00:23:15;;;;;;;2.55;2.35;;;;;;;;;;1017642;29;20472;-73
2023/12/27 00:23:46;;;;;;;6.00;1.98;;;;;;;;;;1021350;29;20146;-73
2023/12/27 00:24:16;;;;;;;1.38;1.25;;;;;;;;;;1017465;29;20024;-73
2023/12/27 00:24:47;;;;;;;2.90;2.70;;;;;;;;;;1017389;29;20064;-73
2023/12/27 00:25:17;;;;;;;3.90;3.60;;;;;;;;;;1016941;29;20464;-73
2023/12/27 00:25:48;;;;;;;6.63;4.72;;;;;;;;;;1015476;29;20038;-73
2023/12/27 00:26:18;;;;;;;5.20;3.53;;;;;;;;;;1015758;29;20392;-73
2023/12/27 00:26:49;;;;;;;1.60;1.25;;;;;;;;;;1020713;29;20438;-73
2023/12/27 00:27:19;;;;;;;2.03;1.92;;;;;;;;;;1017157;29;20365;-73
2023/12/27 00:27:50;;;;;;;2.03;1.92;;;;;;;;;;1016654;29;20099;-73
2023/12/27 00:28:20;;;;;;;3.35;3.08;;;;;;;;;;1021330;29;20034;-73
2023/12/27 00:28:51;;;;;;;2.60;1.98;;;;;;;;;;1019341;29;20082;-73
2023/12/27 00:29:21;;;;;;;1.33;1.23;;;;;;;;;;1021175;29;20023;-73
2023/12/27 00:29:52;;;;;;;3.78;3.50;;;;;;;;;;1021471;29;20111;-73
2023/12/27 00:30:22;;;;;;;19.27;4.18;;;;;;;;;;1021900;29;20026;-73
2023/12/27 00:30:53;;;;;;;16.88;5.30;;;;;;;;;;1021330;29;20027;-73
2023/12/27 00:31:23;;;;;;;1.67;1.58;;;;;;;;;;1021129;29;20038;-73
2023/12/27 00:31:54;;;;;;;13.05;4.68;;;;;;;;;;1021194;29;20024;-73
2023/12/27 00:32:24;;;;;;;4.65;2.55;;;;;;;;;;1021389;29;20027;-73
2023/12/27 00:32:55;;;;;;;16.95;4.28;;;;;;;;;;1021371;29;20081;-73
2023/12/27 00:33:25;;;;;;;4.40;3.30;;;;;;;;;;1021329;28;20034;-73
2023/12/27 00:33:56;;;;;;;3.10;2.85;;;;;;;;;;1021327;29;20027;-73
2023/12/27 00:34:26;;;;;;;4.13;3.03;;;;;;;;;;1021375;29;20015;-73
2023/12/27 00:34:57;;;;;;;1.80;1.33;;;;;;;;;;1017253;29;20036;-73
2023/12/27 00:35:27;;;;;;;8.55;4.18;;;;;;;;;;1022028;29;20157;-73
2023/12/27 00:35:58;;;;;;;3.35;2.20;;;;;;;;;;1021048;29;20038;-73
2023/12/27 00:36:29;;;;;;;5.40;3.42;;;;;;;;;;1021398;29;20019;-73
2023/12/27 00:36:59;;;;;;;4.65;3.33;;;;;;;;;;1021281;29;20059;-73
2023/12/27 00:37:30;;;;;;;1.27;1.00;;;;;;;;;;1021153;29;20495;-73
2023/12/27 00:38:01;;;;;;;5.53;3.10;;;;;;;;;;1021696;29;20023;-73
2023/12/27 00:38:31;;;;;;;3.53;2.53;;;;;;;;;;1021510;29;20373;-73
2023/12/27 00:39:03;;;;;;;3.58;3.25;;;;;;;;;;1021698;29;20134;-73
2023/12/27 00:39:34;;;;;;;4.22;3.83;;;;;;;;;;1020998;29;20036;-73
2023/12/27 00:40:05;;;;;;;5.82;3.10;;;;;;;;;;1021677;29;20032;-73
2023/12/27 00:40:35;;;;;;;2.80;2.60;;;;;;;;;;1021515;29;20034;-73
2023/12/27 00:41:07;;;;;;;1.35;1.27;;;;;;;;;;1021219;28;20460;-73
2023/12/27 00:41:37;;;;;;;6.82;3.53;;;;;;;;;;1021607;28;20051;-73
2023/12/27 00:42:08;;;;;;;6.93;4.85;;;;;;;;;;1021616;28;20502;-73
2023/12/27 00:42:38;;;;;;;6.80;4.22;;;;;;;;;;1021258;29;20082;-73
2023/12/27 00:43:09;;;;;;;8.52;2.35;;;;;;;;;;1021659;29;20035;-73
2023/12/27 00:43:40;;;;;;;5.70;3.42;;;;;;;;;;1021267;29;20031;-73
2023/12/27 00:44:10;;;;;;;9.25;3.92;;;;;;;;;;1021256;29;20035;-73
2023/12/27 00:44:40;;;;;;;4.95;2.40;;;;;;;;;;1021355;29;20035;-73
2023/12/27 00:45:11;;;;;;;15.82;5.03;;;;;;;;;;1018966;29;20023;-73
2023/12/27 00:45:41;;;;;;;4.82;3.95;;;;;;;;;;1020828;28;20019;-73
2023/12/27 00:46:12;;;;;;;5.28;2.83;;;;;;;;;;1019109;29;20027;-73
2023/12/27 00:46:42;;;;;;;15.07;6.38;;;;;;;;;;1019505;29;20119;-73
2023/12/27 00:47:13;;;;;;;3.78;2.25;;;;;;;;;;1023104;29;20102;-73
2023/12/27 00:47:44;;;;;;;2.70;2.53;;;;;;;;;;1021478;29;20035;-73
2023/12/27 00:48:15;;;;;;;3.83;2.90;;;;;;;;;;1021518;29;20377;-73
2023/12/27 00:48:45;;;;;;;2.75;2.55;;;;;;;;;;1021567;29;20042;-73
2023/12/27 00:49:16;;;;;;;7.90;3.63;;;;;;;;;;1021491;29;20047;-73
2023/12/27 00:49:47;;;;;;;8.98;3.88;;;;;;;;;;1021596;29;20027;-73
2023/12/27 00:50:18;;;;;;;12.68;5.93;;;;;;;;;;1021382;29;20027;-73
2023/12/27 00:50:49;;;;;;;7.28;5.70;;;;;;;;;;1020823;29;20067;-73
2023/12/27 00:51:20;;;;;;;14.05;4.82;;;;;;;;;;1020973;29;20024;-73
2023/12/27 00:51:50;;;;;;;6.45;3.67;;;;;;;;;;1020034;29;20582;-73
2023/12/27 00:52:21;;;;;;;9.15;4.45;;;;;;;;;;1021290;29;20120;-73
2023/12/27 00:52:51;;;;;;;18.20;4.18;;;;;;;;;;1022066;29;20023;-73
2023/12/27 00:53:22;;;;;;;5.10;3.13;;;;;;;;;;1021159;29;20152;-73
2023/12/27 00:53:52;;;;;;;2.97;2.63;;;;;;;;;;1021220;29;20067;-73
2023/12/27 00:54:22;;;;;;;3.40;2.67;;;;;;;;;;1021233;29;20020;-73
2023/12/27 00:54:53;;;;;;;1.00;1.00;;;;;;;;;;1021128;29;20020;-73
2023/12/27 00:55:23;;;;;;;4.20;3.10;;;;;;;;;;1021160;29;20134;-73
2023/12/27 00:55:54;;;;;;;4.05;2.42;;;;;;;;;;1020590;28;20066;-73
2023/12/27 00:56:24;;;;;;;6.28;2.47;;;;;;;;;;1021043;29;20115;-73
2023/12/27 00:56:55;;;;;;;1.77;1.52;;;;;;;;;;1020944;29;20712;-73
2023/12/27 00:57:25;;;;;;;6.03;4.03;;;;;;;;;;1021678;29;20074;-73
2023/12/27 00:57:57;;;;;;;4.35;2.65;;;;;;;;;;1021447;28;20495;-73
2023/12/27 00:58:28;;;;;;;13.45;3.50;;;;;;;;;;1021358;28;20028;-73
2023/12/27 00:58:59;;;;;;;4.00;3.70;;;;;;;;;;1021852;28;20038;-73
2023/12/27 00:59:29;;;;;;;6.15;3.88;;;;;;;;;;1021570;29;20159;-73
2023/12/27 01:00:00;;;;;;;8.10;3.63;;;;;;;;;;1021620;29;20024;-73
2023/12/27 01:00:30;;;;;;;5.85;2.95;;;;;;;;;;1020537;29;20455;-73
2023/12/27 01:01:01;;;;;;;7.07;4.68;;;;;;;;;;1021240;29;20027;-73
2023/12/27 01:01:31;;;;;;;2.67;2.47;;;;;;;;;;1021260;29;20527;-73
2023/12/27 01:02:02;;;;;;;4.65;1.88;;;;;;;;;;1021277;29;20032;-73
2023/12/27 01:02:35;;;;;;;4.78;2.70;;;;;;;;;;1021062;29;20049;-73
2023/12/27 01:03:05;;;;;;;3.08;2.40;;;;;;;;;;1020644;29;20108;-73
2023/12/27 01:03:35;;;;;;;9.98;3.33;;;;;;;;;;1021136;29;20514;-73
2023/12/27 01:04:06;;;;;;;4.90;4.07;;;;;;;;;;1021640;29;20170;-73
2023/12/27 01:04:37;;;;;;;2.67;2.40;;;;;;;;;;1021843;29;20380;-73
2023/12/27 01:05:07;;;;;;;5.85;3.25;;;;;;;;;;1021304;28;20045;-73
2023/12/27 01:05:38;;;;;;;2.10;1.85;;;;;;;;;;1021563;29;20110;-73
2023/12/27 01:06:09;;;;;;;5.30;2.85;;;;;;;;;;1020703;28;20028;-73
2023/12/27 01:06:39;;;;;;;2.50;1.77;;;;;;;;;;1021394;29;20082;-73
2023/12/27 01:07:10;;;;;;;7.60;4.32;;;;;;;;;;1021655;29;20031;-73
2023/12/27 01:07:41;;;;;;;7.10;3.13;;;;;;;;;;1021216;29;20563;-73
2023/12/27 01:08:11;;;;;;;9.52;4.22;;;;;;;;;;1019929;29;20551;-73
2023/12/27 01:08:42;;;;;;;2.92;2.70;;;;;;;;;;1021127;29;20538;-73
2023/12/27 01:09:12;;;;;;;3.75;2.85;;;;;;;;;;1021338;29;20034;-73
2023/12/27 01:09:43;;;;;;;1.65;1.50;;;;;;;;;;1021403;29;20391;-73
2023/12/27 01:10:14;;;;;;;10.43;4.15;;;;;;;;;;1020902;29;20055;-73
2023/12/27 01:10:44;;;;;;;2.85;1.60;;;;;;;;;;1021272;28;20081;-73
2023/12/27 01:11:15;;;;;;;3.15;2.53;;;;;;;;;;1021323;28;20543;-73
2023/12/27 01:11:46;;;;;;;4.35;2.47;;;;;;;;;;1021631;28;20032;-73
2023/12/27 01:12:16;;;;;;;6.32;3.58;;;;;;;;;;1021531;28;20118;-73
2023/12/27 01:12:48;;;;;;;6.03;2.95;;;;;;;;;;1021370;28;20023;-73
2023/12/27 01:13:19;;;;;;;7.68;3.28;;;;;;;;;;1021051;29;20405;-73
2023/12/27 01:13:49;;;;;;;4.30;2.97;;;;;;;;;;1021215;29;20032;-73
2023/12/27 01:14:20;;;;;;;7.85;4.13;;;;;;;;;;1021261;29;20024;-73
2023/12/27 01:14:50;;;;;;;6.35;3.53;;;;;;;;;;1021178;29;20400;-73
2023/12/27 01:15:21;;;;;;;4.20;3.85;;;;;;;;;;1024849;28;20058;-73
2023/12/27 01:15:51;;;;;;;13.10;4.85;;;;;;;;;;1021394;29;20392;-73
2023/12/27 01:16:22;;;;;;;5.50;3.92;;;;;;;;;;1020424;29;20030;-73
2023/12/27 01:16:52;;;;;;;13.88;5.13;;;;;;;;;;1020765;28;20488;-73
2023/12/27 01:17:23;;;;;;;7.40;5.38;;;;;;;;;;1021517;28;20121;-73
2023/12/27 01:17:53;;;;;;;7.22;4.53;;;;;;;;;;1020976;29;20032;-73
2023/12/27 01:18:24;;;;;;;14.23;4.43;;;;;;;;;;1020959;29;20031;-73
2023/12/27 01:18:54;;;;;;;6.20;4.75;;;;;;;;;;1020840;29;20129;-73
2023/12/27 01:19:25;;;;;;;7.60;3.55;;;;;;;;;;1021190;29;20039;-73
2023/12/27 01:19:56;;;;;;;2.47;2.25;;;;;;;;;;1020704;29;20031;-73
2023/12/27 01:20:27;;;;;;;9.23;5.22;;;;;;;;;;1022024;28;20031;-73
2023/12/27 01:20:58;;;;;;;10.68;6.57;;;;;;;;;;1020696;29;20034;-73
2023/12/27 01:21:28;;;;;;;9.90;4.97;;;;;;;;;;1021390;29;20032;-73
2023/12/27 01:21:59;;;;;;;0.85;0.85;;;;;;;;;;1022006;29;20431;-73
2023/12/27 01:22:29;;;;;;;10.98;4.32;;;;;;;;;;1021909;28;20027;-73
2023/12/27 01:23:00;;;;;;;13.57;5.63;;;;;;;;;;1021473;28;20483;-73
2023/12/27 01:23:32;;;;;;;3.95;3.08;;;;;;;;;;1022040;29;20532;-73
2023/12/27 01:24:03;;;;;;;6.80;3.28;;;;;;;;;;1021957;29;20510;-73
2023/12/27 01:24:33;;;;;;;11.07;5.63;;;;;;;;;;1019937;29;20035;-73
2023/12/27 01:25:04;;;;;;;9.48;5.00;;;;;;;;;;1020713;29;20447;-73
2023/12/27 01:25:35;;;;;;;14.02;5.55;;;;;;;;;;1021494;29;20027;-73
2023/12/27 01:26:05;;;;;;;5.25;3.05;;;;;;;;;;1019613;29;20039;-73
2023/12/27 01:26:36;;;;;;;4.18;3.60;;;;;;;;;;1021426;29;20027;-73
2023/12/27 01:27:06;;;;;;;12.35;3.78;;;;;;;;;;1022281;28;20027;-73
2023/12/27 01:27:37;;;;;;;3.08;2.75;;;;;;;;;;1022008;29;20500;-73
2023/12/27 01:28:07;;;;;;;12.73;3.33;;;;;;;;;;1021842;28;20129;-73
2023/12/27 01:28:38;;;;;;;2.63;2.05;;;;;;;;;;1020980;29;20042;-73
2023/12/27 01:29:08;;;;;;;10.75;3.88;;;;;;;;;;1018291;29;20123;-73
2023/12/27 01:29:39;;;;;;;3.80;1.25;;;;;;;;;;1018896;29;20028;-73
2023/12/27 01:30:09;;;;;;;6.47;3.78;;;;;;;;;;1020241;29;20517;-73
2023/12/27 01:30:40;;;;;;;15.57;5.68;;;;;;;;;;1020921;28;20032;-73
2023/12/27 01:31:10;;;;;;;4.93;4.43;;;;;;;;;;1020927;29;20035;-73
2023/12/27 01:31:41;;;;;;;3.70;2.28;;;;;;;;;;1022272;29;20027;-73
2023/12/27 01:32:11;;;;;;;7.18;5.47;;;;;;;;;;1022152;29;20644;-73
2023/12/27 01:32:42;;;;;;;4.68;4.28;;;;;;;;;;1021304;29;20023;-73
2023/12/27 01:33:12;;;;;;;6.53;4.30;;;;;;;;;;1021490;29;20909;-73
2023/12/27 01:33:43;;;;;;;10.13;5.53;;;;;;;;;;1021898;29;20075;-73
2023/12/27 01:34:13;;;;;;;5.25;2.90;;;;;;;;;;1021149;28;20031;-73
2023/12/27 01:34:44;;;;;;;4.63;2.53;;;;;;;;;;1019183;29;20027;-73
2023/12/27 01:35:15;;;;;;;6.22;2.97;;;;;;;;;;1015321;29;20024;-74
2023/12/27 01:35:46;;;;;;;5.47;4.63;;;;;;;;;;1015167;29;20024;-74
2023/12/27 01:36:18;;;;;;;6.18;3.75;;;;;;;;;;1018621;29;20086;-74
2023/12/27 01:36:49;;;;;;;3.95;3.42;;;;;;;;;;1020788;28;20027;-73
2023/12/27 01:37:19;;;;;;;2.97;2.28;;;;;;;;;;1024844;28;20030;-74
2023/12/27 01:37:50;;;;;;;8.23;5.18;;;;;;;;;;1022215;28;20459;-73
2023/12/27 01:38:20;;;;;;;4.47;4.07;;;;;;;;;;1020783;28;20088;-73
2023/12/27 01:38:51;;;;;;;16.88;8.20;;;;;;;;;;1020610;28;20019;-73
2023/12/27 01:39:22;;;;;;;2.97;2.72;;;;;;;;;;1021937;28;20034;-73
2023/12/27 01:39:53;;;;;;;13.57;5.43;;;;;;;;;;1021449;28;20085;-74
2023/12/27 01:40:23;;;;;;;3.63;3.22;;;;;;;;;;1021291;29;20051;-74
2023/12/27 01:40:54;;;;;;;4.30;3.05;;;;;;;;;;1017874;29;20432;-74
2023/12/27 01:41:24;;;;;;;3.05;2.70;;;;;;;;;;1017755;29;20035;-74
2023/12/27 01:41:55;;;;;;;7.30;2.67;;;;;;;;;;1018255;29;20027;-74
2023/12/27 01:42:25;;;;;;;4.82;2.78;;;;;;;;;;1021791;29;20031;-74
2023/12/27 01:42:56;;;;;;;4.97;3.05;;;;;;;;;;1020455;29;20133;-75
2023/12/27 01:43:26;;;;;;;7.93;3.25;;;;;;;;;;1021641;29;20037;-74
2023/12/27 01:43:57;;;;;;;3.33;3.05;;;;;;;;;;1021298;29;20031;-73
2023/12/27 01:44:27;;;;;;;4.05;3.28;;;;;;;;;;1021423;29;20122;-72
2023/12/27 01:44:58;;;;;;;4.22;3.15;;;;;;;;;;1021119;29;20586;-72
2023/12/27 01:45:28;;;;;;;1.80;1.67;;;;;;;;;;1020311;29;20615;-73
2023/12/27 01:45:59;;;;;;;4.55;3.60;;;;;;;;;;1019011;28;20038;-73
2023/12/27 01:46:30;;;;;;;12.13;6.07;;;;;;;;;;1020916;29;20031;-73
2023/12/27 01:47:01;;;;;;;2.58;2.17;;;;;;;;;;1021476;29;20035;-72
2023/12/27 01:47:33;;;;;;;3.83;3.55;;;;;;;;;;1019260;28;20146;-72
2023/12/27 01:48:03;;;;;;;2.33;2.03;;;;;;;;;;1018156;29;20068;-72
2023/12/27 01:48:35;;;;;;;1.38;1.20;;;;;;;;;;1016650;29;20020;-72
2023/12/27 01:49:05;;;;;;;9.07;3.60;;;;;;;;;;1017553;29;20031;-72
2023/12/27 01:49:36;;;;;;;11.27;2.55;;;;;;;;;;1020057;29;20559;-72
2023/12/27 01:50:10;;;;;;;9.82;5.22;;;;;;;;;;1023691;28;20034;-73
2023/12/27 01:50:41;;;;;;;0.95;0.95;;;;;;;;;;1022026;28;20031;-73
2023/12/27 01:51:14;;;;;;;7.90;3.97;;;;;;;;;;1020819;29;20118;-73
2023/12/27 01:51:44;;;;;;;11.48;5.35;;;;;;;;;;1021723;28;20055;-72
2023/12/27 01:52:15;;;;;;;12.20;5.68;;;;;;;;;;1019900;29;20023;-72
2023/12/27 01:52:45;;;;;;;7.93;2.55;;;;;;;;;;1020018;29;20528;-72
2023/12/27 01:53:17;;;;;;;4.60;2.97;;;;;;;;;;1020187;29;20090;-72
2023/12/27 01:53:48;;;;;;;7.03;4.97;;;;;;;;;;1020928;28;20035;-72
2023/12/27 01:54:18;;;;;;;5.95;2.50;;;;;;;;;;1021650;29;20028;-72
2023/12/27 01:54:49;;;;;;;3.13;2.25;;;;;;;;;;1021001;29;20787;-73
2023/12/27 01:55:19;;;;;;;9.43;3.03;;;;;;;;;;1021137;29;20031;-72
2023/12/27 01:55:51;;;;;;;7.65;3.38;;;;;;;;;;1019810;28;20059;-72
2023/12/27 01:56:21;;;;;;;2.17;1.95;;;;;;;;;;1019458;29;20448;-72
2023/12/27 01:56:52;;;;;;;5.78;2.92;;;;;;;;;;1020990;29;20027;-73
2023/12/27 01:57:23;;;;;;;14.05;6.30;;;;;;;;;;1018852;29;20019;-72
2023/12/27 01:57:53;;;;;;;2.65;2.17;;;;;;;;;;1021130;29;20472;-72
2023/12/27 01:58:25;;;;;;;9.13;2.75;;;;;;;;;;1021004;29;20023;-73
2023/12/27 01:58:56;;;;;;;12.32;3.83;;;;;;;;;;1018823;29;20087;-73
2023/12/27 01:59:26;;;;;;;3.45;3.20;;;;;;;;;;1021887;29;20503;-72
2023/12/27 01:59:57;;;;;;;2.38;2.17;;;;;;;;;;1019992;29;20028;-72
2023/12/27 02:00:28;;;;;;;3.92;1.52;;;;;;;;;;1017901;29;20027;-72
2023/12/27 02:00:58;;;;;;;4.28;3.88;;;;;;;;;;1019020;29;20024;-72
2023/12/27 02:01:29;;;;;;;2.88;2.22;;;;;;;;;;1019382;29;20501;-72
2023/12/27 02:02:00;;;;;;;8.50;3.92;;;;;;;;;;1022445;29;20110;-72
2023/12/27 02:02:30;;;;;;;1.73;1.63;;;;;;;;;;1020500;29;20131;-72
2023/12/27 02:03:11;;;;;;;9.95;4.00;;;;;;;;;;1017542;29;20028;-72
2023/12/27 02:03:42;;;;;;;3.05;2.42;;;;;;;;;;1019904;29;20542;-72
2023/12/27 02:04:12;;;;;;;4.72;1.95;;;;;;;;;;1020428;29;20032;-72
2023/12/27 02:04:44;;;;;;;9.60;5.15;;;;;;;;;;1020675;29;20015;-72
2023/12/27 02:05:14;;;;;;;13.15;3.78;;;;;;;;;;1020614;29;20445;-72
2023/12/27 02:05:45;;;;;;;3.03;2.83;;;;;;;;;;1021667;29;20046;-72
2023/12/27 02:06:16;;;;;;;8.65;4.65;;;;;;;;;;1021461;28;20027;-72
2023/12/27 02:06:47;;;;;;;13.65;3.60;;;;;;;;;;1024962;28;20434;-72
2023/12/27 02:07:17;;;;;;;4.10;2.08;;;;;;;;;;1019067;28;20155;-72
2023/12/27 02:07:48;;;;;;;4.10;2.08;;;;;;;;;;1019669;29;20551;-72
2023/12/27 02:08:19;;;;;;;3.03;2.78;;;;;;;;;;1020270;29;20059;-72
2023/12/27 02:08:50;;;;;;;2.05;1.50;;;;;;;;;;1016114;29;20506;-71
2023/12/27 02:09:21;;;;;;;4.05;2.42;;;;;;;;;;1020792;29;20027;-72
2023/12/27 02:09:51;;;;;;;3.40;2.38;;;;;;;;;;1015366;29;20151;-73
2023/12/27 02:10:22;;;;;;;2.47;2.33;;;;;;;;;;1016082;29;20055;-72
2023/12/27 02:10:53;;;;;;;1.50;1.38;;;;;;;;;;1016180;29;20027;-72
2023/12/27 02:11:23;;;;;;;1.00;1.00;;;;;;;;;;1017035;29;20031;-72
2023/12/27 02:11:54;;;;;;;1.98;1.85;;;;;;;;;;1016449;29;20028;-72
2023/12/27 02:12:25;;;;;;;6.13;2.33;;;;;;;;;;1017208;29;20052;-72
2023/12/27 02:12:56;;;;;;;3.65;3.30;;;;;;;;;;1015625;29;20031;-72
2023/12/27 02:13:29;;;;;;;2.33;2.15;;;;;;;;;;1019894;29;20063;-72
2023/12/27 02:14:00;;;;;;;3.33;3.10;;;;;;;;;;1019692;29;20062;-72
2023/12/27 02:14:30;;;;;;;5.45;5.03;;;;;;;;;;1020319;29;20028;-72
2023/12/27 02:15:01;;;;;;;1.70;1.52;;;;;;;;;;1019956;29;20039;-72
2023/12/27 02:15:31;;;;;;;4.70;2.58;;;;;;;;;;1014542;29;20067;-72
2023/12/27 02:16:02;;;;;;;4.10;2.47;;;;;;;;;;1020723;28;20177;-72
2023/12/27 02:16:33;;;;;;;4.05;2.85;;;;;;;;;;1020146;29;20127;-71
2023/12/27 02:17:04;;;;;;;6.30;2.38;;;;;;;;;;1014347;29;20548;-72
2023/12/27 02:17:34;;;;;;;2.70;2.45;;;;;;;;;;1018897;29;20032;-72
2023/12/27 02:18:06;;;;;;;3.72;1.50;;;;;;;;;;1018976;29;20079;-71
2023/12/27 02:18:37;;;;;;;2.92;1.67;;;;;;;;;;1019013;29;20023;-72
2023/12/27 02:19:10;;;;;;;0.68;0.68;;;;;;;;;;1019963;29;20614;-72
2023/12/27 02:19:41;;;;;;;0.65;0.65;;;;;;;;;;1020022;29;20038;-72
2023/12/27 02:20:12;;;;;;;1.17;1.10;;;;;;;;;;1016681;29;20031;-72
2023/12/27 02:20:43;;;;;;;3.65;3.35;;;;;;;;;;1015302;29;20020;-73
2023/12/27 02:21:14;;;;;;;8.88;3.42;;;;;;;;;;1016164;29;20408;-71
2023/12/27 02:21:45;;;;;;;5.93;2.92;;;;;;;;;;1017888;29;20026;-71
2023/12/27 02:22:19;;;;;;;5.22;2.13;;;;;;;;;;1021548;29;20027;-71
2023/12/27 02:23:21;;;;;;;3.50;2.70;;;;;;;;;;1039580;23;20200;-73
2023/12/27 02:23:53;;;;;;;4.22;2.08;;;;;;;;;;1040916;28;20029;-72
2023/12/27 02:24:26;;;;;;;2.38;2.17;;;;;;;;;;1038663;28;20021;-71
2023/12/27 02:24:56;;;;;;;4.43;2.47;;;;;;;;;;1040158;28;20025;-71
2023/12/27 02:25:27;;;;;;;3.53;3.15;;;;;;;;;;1041555;28;20113;-71
2023/12/27 02:25:58;;;;;;;6.32;1.77;;;;;;;;;;1037162;28;20060;-71
2023/12/27 02:26:29;;;;;;;12.10;6.70;;;;;;;;;;1036788;28;20052;-72
2023/12/27 02:26:59;;;;;;;3.50;2.08;;;;;;;;;;1036349;28;20084;-72
2023/12/27 02:27:30;;;;;;;2.65;1.02;;;;;;;;;;1036180;28;20033;-71
2023/12/27 02:28:01;;;;;;;11.77;3.05;;;;;;;;;;1034688;28;20482;-71
2023/12/27 02:28:31;;;;;;;3.78;2.20;;;;;;;;;;1035447;28;20018;-71
2023/12/27 02:29:02;;;;;;;2.47;2.28;;;;;;;;;;1035810;28;20406;-71
2023/12/27 02:29:34;;;;;;;2.00;1.73;;;;;;;;;;1036157;28;20057;-71
2023/12/27 02:30:05;;;;;;;4.65;2.95;;;;;;;;;;1035548;28;20386;-71
2023/12/27 02:30:36;;;;;;;9.10;3.15;;;;;;;;;;1037117;28;20017;-71
2023/12/27 02:31:07;;;;;;;2.25;2.13;;;;;;;;;;1040265;28;20029;-71
2023/12/27 02:31:37;;;;;;;5.60;2.33;;;;;;;;;;1039574;28;20013;-71
2023/12/27 02:32:08;;;;;;;2.28;2.15;;;;;;;;;;1038848;28;20120;-71
2023/12/27 02:32:39;;;;;;;2.63;2.35;;;;;;;;;;1037590;28;20026;-71
2023/12/27 02:33:10;;;;;;;2.83;2.63;;;;;;;;;;1034437;28;20053;-72
2023/12/27 02:33:43;;;;;;;6.32;1.65;;;;;;;;;;1033531;28;20049;-73
2023/12/27 02:34:14;;;;;;;3.08;2.88;;;;;;;;;;1033055;28;20030;-73
2023/12/27 02:34:45;;;;;;;13.40;3.50;;;;;;;;;;1028485;28;20018;-73
2023/12/27 02:35:16;;;;;;;3.03;2.75;;;;;;;;;;1030766;28;20042;-72
2023/12/27 02:35:47;;;;;;;7.75;2.15;;;;;;;;;;1029604;28;20472;-72
2023/12/27 02:36:17;;;;;;;2.22;2.13;;;;;;;;;;1032034;28;20126;-71
2023/12/27 02:36:48;;;;;;;17.13;3.05;;;;;;;;;;1032820;28;20025;-72
2023/12/27 02:37:18;;;;;;;1.92;1.83;;;;;;;;;;1035518;28;20025;-72
2023/12/27 02:37:49;;;;;;;6.72;3.60;;;;;;;;;;1034170;28;20018;-72
2023/12/27 02:38:19;;;;;;;12.02;7.22;;;;;;;;;;1031230;28;20053;-72
2023/12/27 02:38:50;;;;;;;4.10;2.08;;;;;;;;;;1032660;28;20026;-75
2023/12/27 02:39:21;;;;;;;4.43;3.15;;;;;;;;;;1030757;28;20038;-75
2023/12/27 02:39:51;;;;;;;7.35;5.35;;;;;;;;;;1030106;28;20072;-75
2023/12/27 02:40:22;;;;;;;6.78;3.85;;;;;;;;;;1033486;28;20526;-75
2023/12/27 02:40:52;;;;;;;4.82;3.75;;;;;;;;;;1029577;28;20931;-74
2023/12/27 02:41:23;;;;;;;4.32;2.22;;;;;;;;;;1031053;28;20034;-74
2023/12/27 02:41:53;;;;;;;2.53;2.33;;;;;;;;;;1033185;28;20030;-74
2023/12/27 02:42:24;;;;;;;2.38;2.28;;;;;;;;;;1034728;28;20148;-74
2023/12/27 02:42:55;;;;;;;5.10;1.95;;;;;;;;;;1037099;28;20207;-74
2023/12/27 02:43:26;;;;;;;1.65;1.13;;;;;;;;;;1038594;28;20420;-71
2023/12/27 02:43:56;;;;;;;3.65;2.33;;;;;;;;;;1035475;28;20100;-72
2023/12/27 02:44:27;;;;;;;0.90;0.90;;;;;;;;;;1033807;28;20550;-72
2023/12/27 02:44:58;;;;;;;6.00;2.63;;;;;;;;;;1033599;28;20034;-72
2023/12/27 02:45:28;;;;;;;1.23;1.02;;;;;;;;;;1034072;28;20026;-71
2023/12/27 02:45:59;;;;;;;0.45;0.45;;;;;;;;;;1036329;28;20030;-71
2023/12/27 02:46:33;;;;;;;5.90;2.28;;;;;;;;;;1036216;28;20594;-71
2023/12/27 02:47:06;;;;;;;3.72;1.80;;;;;;;;;;1036604;28;20029;-71
2023/12/27 02:47:36;;;;;;;3.63;3.40;;;;;;;;;;1033354;28;20022;-71
2023/12/27 02:48:07;;;;;;;3.35;1.67;;;;;;;;;;1037986;28;20021;-72
2023/12/27 02:48:37;;;;;;;6.28;2.72;;;;;;;;;;1036920;28;20087;-72
2023/12/27 02:49:08;;;;;;;0.57;0.57;;;;;;;;;;1042245;28;20079;-72
2023/12/27 02:49:39;;;;;;;1.45;1.27;;;;;;;;;;1041131;28;20544;-71
2023/12/27 02:50:10;;;;;;;4.47;1.77;;;;;;;;;;1038653;28;20040;-72
2023/12/27 02:50:44;;;;;;;4.35;2.45;;;;;;;;;;1033853;28;20038;-72
2023/12/27 02:51:14;;;;;;;8.45;3.78;;;;;;;;;;1034605;28;20041;-73
2023/12/27 02:51:45;;;;;;;4.68;1.50;;;;;;;;;;1033919;28;20113;-73
2023/12/27 02:52:16;;;;;;;1.02;1.02;;;;;;;;;;1034719;28;21004;-73
2023/12/27 02:52:47;;;;;;;3.45;3.25;;;;;;;;;;1034917;28;20026;-72
2023/12/27 02:53:17;;;;;;;9.95;4.57;;;;;;;;;;1035455;28;20052;-73
2023/12/27 02:53:48;;;;;;;14.85;2.88;;;;;;;;;;1035219;28;20124;-73
2023/12/27 02:54:19;;;;;;;18.48;3.20;;;;;;;;;;1033376;28;20613;-73
2023/12/27 02:54:49;;;;;;;2.70;2.35;;;;;;;;;;1033212;28;20116;-73
2023/12/27 02:55:20;;;;;;;2.80;1.70;;;;;;;;;;1034847;28;20300;-72
2023/12/27 02:55:51;;;;;;;9.40;4.15;;;;;;;;;;1034840;28;20164;-72
2023/12/27 02:56:21;;;;;;;2.10;2.00;;;;;;;;;;1034957;28;20025;-73
2023/12/27 02:56:52;;;;;;;0.93;0.93;;;;;;;;;;1031797;28;20056;-73
2023/12/27 02:57:22;;;;;;;6.57;2.63;;;;;;;;;;1034612;28;20026;-72
2023/12/27 02:57:53;;;;;;;3.08;1.73;;;;;;;;;;1032740;28;20030;-71
2023/12/27 02:58:23;;;;;;;1.50;1.40;;;;;;;;;;1031331;28;20056;-73
2023/12/27 02:58:54;;;;;;;5.10;3.05;;;;;;;;;;1036066;28;20034;-72
2023/12/27 02:59:24;;;;;;;1.05;1.05;;;;;;;;;;1034078;28;20042;-72
2023/12/27 02:59:55;;;;;;;3.60;2.63;;;;;;;;;;1031839;28;21249;-72
2023/12/27 03:00:25;;;;;;;5.75;2.80;;;;;;;;;;1030181;28;21066;-74
2023/12/27 03:00:56;;;;;;;2.08;1.90;;;;;;;;;;1029861;28;20033;-73
2023/12/27 03:01:27;;;;;;;4.85;2.72;;;;;;;;;;1034328;28;20509;-73
2023/12/27 03:01:57;;;;;;;0.93;0.93;;;;;;;;;;1033396;28;20030;-73
2023/12/27 03:02:28;;;;;;;8.27;1.67;;;;;;;;;;1045481;23;21765;-74
2023/12/27 03:02:58;;;;;;;6.25;2.95;;;;;;;;;;1018279;29;20155;-72
2023/12/27 03:03:29;;;;;;;7.85;3.35;;;;;;;;;;1016776;29;20095;-75
2023/12/27 03:04:00;;;;;;;2.53;1.95;;;;;;;;;;1014039;29;20453;-74
2023/12/27 03:04:30;;;;;;;5.30;2.10;;;;;;;;;;1012663;29;20031;-74